createdAt,value
2019-05-30T00:00:38.980Z,2.90
2019-05-30T00:01:38.955Z,2.10
2019-05-30T00:02:38.947Z,2.50
2019-05-30T00:03:38.939Z,4.40
2019-05-30T00:04:38.920Z,3.90
2019-05-30T00:05:38.939Z,4.60
2019-05-30T00:06:38.901Z,2.70
2019-05-30T00:07:38.882Z,3.10
2019-05-30T00:08:38.883Z,3.50
2019-05-30T00:09:38.872Z,1.90
2019-05-30T00:10:38.879Z,2.50
2019-05-30T00:11:38.845Z,3.30
2019-05-30T00:12:38.837Z,3.10
2019-05-30T00:13:38.836Z,4.50
2019-05-30T00:14:38.814Z,1.70
2019-05-30T00:15:38.841Z,3.10
2019-05-30T00:16:38.787Z,3.30
2019-05-30T00:17:38.773Z,2.80
2019-05-30T00:18:38.780Z,3.00
2019-05-30T00:19:38.768Z,2.20
2019-05-30T00:20:38.759Z,2.00
2019-05-30T00:21:38.729Z,2.70
2019-05-30T00:22:38.722Z,3.00
2019-05-30T00:23:38.708Z,2.90
2019-05-30T00:24:38.710Z,1.80
2019-05-30T00:25:38.706Z,1.70
2019-05-30T00:26:38.687Z,2.00
2019-05-30T00:27:38.668Z,2.90
2019-05-30T00:28:38.652Z,4.00
2019-05-30T00:29:38.639Z,2.30
2019-05-30T00:30:38.641Z,2.10
2019-05-30T00:31:38.634Z,1.90
2019-05-30T00:32:38.622Z,2.70
2019-05-30T00:33:38.605Z,4.20
2019-05-30T00:34:38.581Z,2.40
2019-05-30T00:35:38.571Z,1.90
2019-05-30T00:36:38.585Z,1.80
2019-05-30T00:37:38.550Z,3.10
2019-05-30T00:38:38.537Z,2.50
2019-05-30T00:39:38.536Z,5.10
2019-05-30T00:40:38.527Z,1.70
2019-05-30T00:41:38.532Z,2.80
2019-05-30T00:42:38.509Z,2.20
2019-05-30T00:43:38.503Z,2.30
2019-05-30T00:44:38.477Z,1.50
2019-05-30T00:45:38.465Z,2.80
2019-05-30T00:46:38.475Z,2.70
2019-05-30T00:47:38.450Z,2.10
2019-05-30T00:48:38.445Z,2.10
2019-05-30T00:49:38.427Z,2.90
2019-05-30T00:50:38.408Z,3.20
2019-05-30T00:51:38.428Z,3.90
2019-05-30T00:52:38.393Z,2.00
2019-05-30T00:53:38.386Z,3.20
2019-05-30T00:54:38.377Z,2.80
2019-05-30T00:55:38.360Z,4.10
2019-05-30T00:56:38.376Z,3.40
2019-05-30T00:57:38.331Z,1.70
2019-05-30T00:58:38.327Z,1.60
2019-05-30T00:59:38.318Z,4.20
2019-05-30T01:00:43.519Z,2.00
2019-05-30T01:01:38.312Z,2.20
2019-05-30T01:03:47.837Z,2.80
2019-05-30T01:04:48.823Z,2.30
2019-05-30T01:05:48.803Z,2.70
2019-05-30T01:06:48.800Z,2.40
2019-05-30T01:07:48.787Z,2.60
2019-05-30T01:08:48.768Z,3.60
2019-05-30T01:09:48.753Z,3.00
2019-05-30T01:10:48.761Z,2.40
2019-05-30T01:11:48.755Z,3.70
2019-05-30T01:12:48.726Z,4.60
2019-05-30T01:13:48.720Z,2.80
2019-05-30T01:14:48.703Z,2.00
2019-05-30T01:15:48.693Z,2.60
2019-05-30T01:16:48.698Z,2.90
2019-05-30T01:17:48.666Z,1.90
2019-05-30T01:18:48.672Z,3.20
2019-05-30T01:19:48.660Z,2.70
2019-05-30T01:20:48.645Z,1.60
2019-05-30T01:21:48.643Z,2.60
2019-05-30T01:22:48.617Z,3.00
2019-05-30T01:23:48.613Z,3.30
2019-05-30T01:24:48.587Z,1.90
2019-05-30T01:25:48.579Z,3.40
2019-05-30T01:26:48.591Z,2.60
2019-05-30T01:27:48.568Z,2.60
2019-05-30T01:28:48.549Z,3.60
2019-05-30T01:29:48.548Z,3.10
2019-05-30T01:30:59.448Z,3.00
2019-05-30T01:31:48.529Z,2.50
2019-05-30T01:32:48.515Z,2.20
2019-05-30T01:33:48.488Z,2.40
2019-05-30T01:34:48.496Z,3.60
2019-05-30T01:35:48.479Z,2.70
2019-05-30T01:36:48.476Z,2.10
2019-05-30T01:37:48.446Z,2.50
2019-05-30T01:38:48.444Z,2.80
2019-05-30T01:39:48.451Z,2.10
2019-05-30T01:40:48.426Z,3.30
2019-05-30T01:41:48.430Z,2.50
2019-05-30T01:42:48.400Z,4.70
2019-05-30T01:43:48.391Z,2.90
2019-05-30T01:44:48.374Z,3.50
2019-05-30T01:45:48.363Z,2.70
2019-05-30T01:46:48.366Z,2.50
2019-05-30T01:47:48.335Z,2.80
2019-05-30T01:48:48.342Z,2.50
2019-05-30T01:49:48.315Z,2.80
2019-05-30T01:50:48.307Z,3.60
2019-05-30T01:51:48.357Z,2.80
2019-05-30T01:52:48.284Z,2.30
2019-05-30T01:53:48.284Z,3.70
2019-05-30T01:54:48.295Z,3.00
2019-05-30T01:55:48.963Z,2.60
2019-05-30T01:56:48.261Z,2.00
2019-05-30T01:57:48.221Z,1.90
2019-05-30T01:58:48.220Z,2.60
2019-05-30T01:59:48.198Z,2.10
2019-05-30T02:00:48.206Z,2.40
2019-05-30T02:01:48.198Z,2.40
2019-05-30T02:02:48.179Z,2.50
2019-05-30T02:03:48.162Z,2.50
2019-05-30T02:04:48.148Z,2.20
2019-05-30T02:05:48.180Z,2.30
2019-05-30T02:06:48.173Z,3.20
2019-05-30T02:07:48.121Z,2.50
2019-05-30T02:08:48.111Z,2.20
2019-05-30T02:09:48.098Z,4.00
2019-05-30T02:10:48.080Z,2.10
2019-05-30T02:11:48.085Z,2.20
2019-05-30T02:12:48.076Z,2.60
2019-05-30T02:13:48.047Z,2.10
2019-05-30T02:14:48.042Z,5.30
2019-05-30T02:15:48.035Z,2.20
2019-05-30T02:16:48.048Z,4.60
2019-05-30T02:17:48.000Z,2.40
2019-05-30T02:18:48.006Z,2.70
2019-05-30T02:19:47.988Z,2.50
2019-05-30T02:20:47.973Z,4.20
2019-05-30T02:21:47.989Z,2.50
2019-05-30T02:22:47.949Z,3.20
2019-05-30T02:23:47.938Z,3.10
2019-05-30T02:24:47.936Z,2.40
2019-05-30T02:25:47.926Z,3.30
2019-05-30T02:26:47.924Z,2.80
2019-05-30T02:27:47.893Z,3.20
2019-05-30T02:28:47.897Z,2.70
2019-05-30T02:29:47.893Z,3.30
2019-05-30T02:30:47.872Z,2.50
2019-05-30T02:31:47.874Z,3.70
2019-05-30T02:32:47.843Z,2.60
2019-05-30T02:33:47.839Z,3.50
2019-05-30T02:34:47.835Z,3.30
2019-05-30T02:35:47.818Z,2.20
2019-05-30T02:36:47.816Z,2.60
2019-05-30T02:37:47.828Z,2.30
2019-05-30T02:38:47.780Z,3.20
2019-05-30T02:39:47.757Z,3.00
2019-05-30T02:40:47.765Z,4.00
2019-05-30T02:41:47.756Z,2.30
2019-05-30T02:42:47.747Z,2.70
2019-05-30T02:43:47.728Z,3.00
2019-05-30T02:44:47.719Z,3.10
2019-05-30T02:45:47.694Z,2.50
2019-05-30T02:46:47.771Z,3.70
2019-05-30T02:47:47.701Z,2.80
2019-05-30T02:48:59.096Z,2.10
2019-05-30T02:49:47.653Z,2.40
2019-05-30T02:50:47.654Z,3.00
2019-05-30T02:51:47.640Z,2.40
2019-05-30T02:52:47.661Z,2.90
2019-05-30T02:53:47.609Z,3.90
2019-05-30T02:54:47.646Z,4.50
2019-05-30T02:55:47.590Z,2.70
2019-05-30T02:56:47.591Z,3.30
2019-05-30T02:57:47.605Z,2.20
2019-05-30T02:58:47.562Z,3.20
2019-05-30T02:59:47.547Z,3.20
2019-05-30T03:00:47.541Z,2.90
2019-05-30T03:02:01.356Z,3.30
2019-05-30T03:02:47.516Z,3.60
2019-05-30T03:04:56.712Z,2.20
2019-05-30T03:05:57.710Z,2.60
2019-05-30T03:06:57.709Z,3.00
2019-05-30T03:07:57.685Z,2.50
2019-05-30T03:08:57.661Z,2.70
2019-05-30T03:09:57.649Z,3.20
2019-05-30T03:10:57.632Z,2.80
2019-05-30T03:11:57.623Z,2.50
2019-05-30T03:12:57.629Z,2.60
2019-05-30T03:13:57.599Z,2.80
2019-05-30T03:14:57.610Z,2.70
2019-05-30T03:15:57.593Z,2.80
2019-05-30T03:16:57.564Z,3.10
2019-05-30T03:17:57.581Z,4.00
2019-05-30T03:18:57.553Z,3.80
2019-05-30T03:19:57.533Z,3.10
2019-05-30T03:20:57.523Z,3.40
2019-05-30T03:21:57.522Z,3.50
2019-05-30T03:22:57.515Z,4.10
2019-05-30T03:23:57.494Z,3.00
2019-05-30T03:24:57.481Z,2.80
2019-05-30T03:25:57.468Z,4.60
2019-05-30T03:26:57.459Z,3.60
2019-05-30T03:27:57.467Z,4.80
2019-05-30T03:28:57.430Z,2.90
2019-05-30T03:29:57.442Z,3.20
2019-05-30T03:30:57.622Z,6.00
2019-05-30T03:31:57.418Z,3.20
2019-05-30T03:33:17.210Z,3.30
2019-05-30T03:33:57.375Z,3.40
2019-05-30T03:34:57.369Z,2.90
2019-05-30T03:35:57.363Z,3.70
2019-05-30T03:36:57.357Z,3.30
2019-05-30T03:37:57.377Z,3.70
2019-05-30T03:38:57.331Z,3.50
2019-05-30T03:39:57.320Z,4.20
2019-05-30T03:40:57.295Z,3.50
2019-05-30T03:41:57.295Z,3.20
2019-05-30T03:42:57.298Z,3.60
2019-05-30T03:43:57.273Z,4.10
2019-05-30T03:44:57.273Z,3.40
2019-05-30T03:45:57.246Z,3.50
2019-05-30T03:46:57.238Z,3.30
2019-05-30T03:47:57.249Z,3.50
2019-05-30T03:48:57.231Z,3.70
2019-05-30T03:49:57.193Z,4.10
2019-05-30T03:50:57.185Z,5.20
2019-05-30T03:51:57.180Z,4.20
2019-05-30T03:52:57.311Z,4.40
2019-05-30T03:53:57.156Z,4.50
2019-05-30T03:54:57.148Z,4.80
2019-05-30T03:55:57.225Z,3.30
2019-05-30T03:56:57.127Z,3.40
2019-05-30T03:57:57.133Z,3.40
2019-05-30T03:58:57.112Z,3.50
2019-05-30T03:59:57.081Z,4.50
2019-05-30T04:00:57.072Z,4.90
2019-05-30T04:01:57.079Z,3.70
2019-05-30T04:02:59.270Z,4.00
2019-05-30T04:03:57.060Z,3.20
2019-05-30T04:04:57.027Z,3.60
2019-05-30T04:05:57.032Z,4.10
2019-05-30T04:06:57.007Z,5.40
2019-05-30T04:07:57.012Z,3.40
2019-05-30T04:08:56.985Z,3.60
2019-05-30T04:09:56.977Z,3.70
2019-05-30T04:10:56.983Z,4.40
2019-05-30T04:11:56.957Z,3.50
2019-05-30T04:12:56.962Z,3.90
2019-05-30T04:13:56.941Z,3.50
2019-05-30T04:14:56.922Z,4.00
2019-05-30T04:15:56.993Z,4.60
2019-05-30T04:16:56.917Z,3.20
2019-05-30T04:17:56.900Z,3.20
2019-05-30T04:18:56.920Z,3.70
2019-05-30T04:19:56.872Z,3.60
2019-05-30T04:20:56.855Z,4.50
2019-05-30T04:21:56.875Z,3.20
2019-05-30T04:22:56.866Z,4.10
2019-05-30T04:23:56.855Z,3.20
2019-05-30T04:24:56.807Z,3.80
2019-05-30T04:26:00.314Z,3.80
2019-05-30T04:26:56.803Z,3.40
2019-05-30T04:27:56.780Z,4.70
2019-05-30T04:28:56.792Z,4.60
2019-05-30T04:29:56.758Z,4.80
2019-05-30T04:30:56.755Z,3.60
2019-05-30T04:31:56.733Z,3.60
2019-05-30T04:33:16.093Z,3.30
2019-05-30T04:33:56.735Z,4.20
2019-05-30T04:34:56.753Z,3.70
2019-05-30T04:35:56.716Z,3.30
2019-05-30T04:36:56.692Z,4.10
2019-05-30T04:37:56.671Z,3.60
2019-05-30T04:38:56.684Z,3.90
2019-05-30T04:39:56.665Z,3.40
2019-05-30T04:40:56.636Z,3.70
2019-05-30T04:41:56.635Z,3.80
2019-05-30T04:42:56.614Z,4.10
2019-05-30T04:43:56.631Z,4.40
2019-05-30T04:44:56.604Z,3.30
2019-05-30T04:45:56.653Z,3.60
2019-05-30T04:46:56.568Z,3.10
2019-05-30T04:47:56.557Z,4.10
2019-05-30T04:48:56.571Z,4.20
2019-05-30T04:49:56.537Z,3.40
2019-05-30T04:51:55.530Z,3.70
2019-05-30T04:52:56.494Z,3.60
2019-05-30T04:53:56.514Z,3.10
2019-05-30T04:54:56.481Z,3.30
2019-05-30T04:55:56.475Z,3.30
2019-05-30T04:56:56.459Z,4.30
2019-05-30T04:57:56.443Z,3.10
2019-05-30T04:58:56.461Z,3.20
2019-05-30T04:59:56.426Z,3.40
2019-05-30T05:00:56.418Z,3.30
2019-05-30T05:01:56.567Z,3.60
2019-05-30T05:02:56.398Z,4.70
2019-05-30T05:03:56.391Z,4.60
2019-05-30T05:06:05.572Z,3.00
2019-05-30T05:07:06.550Z,2.90
2019-05-30T05:08:06.539Z,3.10
2019-05-30T05:09:06.525Z,3.10
2019-05-30T05:10:06.533Z,5.70
2019-05-30T05:11:06.506Z,3.20
2019-05-30T05:12:06.485Z,3.20
2019-05-30T05:13:06.486Z,2.90
2019-05-30T05:14:06.458Z,3.50
2019-05-30T05:15:06.480Z,3.20
2019-05-30T05:16:21.962Z,4.40
2019-05-30T05:17:06.430Z,5.30
2019-05-30T05:18:06.461Z,2.80
2019-05-30T05:19:06.407Z,3.60
2019-05-30T05:20:06.410Z,3.10
2019-05-30T05:21:06.379Z,3.10
2019-05-30T05:22:06.377Z,3.00
2019-05-30T05:23:06.360Z,3.20
2019-05-30T05:24:06.352Z,3.50
2019-05-30T05:25:06.359Z,2.90
2019-05-30T05:26:06.343Z,3.10
2019-05-30T05:27:09.705Z,2.80
2019-05-30T05:28:06.314Z,3.00
2019-05-30T05:29:06.300Z,2.60
2019-05-30T05:30:06.303Z,2.80
2019-05-30T05:31:06.267Z,4.70
2019-05-30T05:32:06.266Z,2.90
2019-05-30T05:33:06.245Z,3.70
2019-05-30T05:34:06.243Z,3.10
2019-05-30T05:35:06.239Z,2.90
2019-05-30T05:36:06.217Z,3.20
2019-05-30T05:37:06.213Z,3.30
2019-05-30T05:38:06.191Z,2.80
2019-05-30T05:39:06.190Z,2.80
2019-05-30T05:40:06.197Z,4.60
2019-05-30T05:41:06.171Z,2.60
2019-05-30T05:42:06.155Z,3.60
2019-05-30T05:43:06.141Z,3.60
2019-05-30T05:44:06.122Z,2.90
2019-05-30T05:45:06.131Z,3.60
2019-05-30T05:46:06.117Z,3.80
2019-05-30T05:47:06.106Z,3.50
2019-05-30T05:48:06.090Z,2.90
2019-05-30T05:49:06.067Z,3.80
2019-05-30T05:50:06.083Z,3.40
2019-05-30T05:51:06.047Z,3.10
2019-05-30T05:52:06.050Z,2.90
2019-05-30T05:53:06.027Z,3.20
2019-05-30T05:54:06.030Z,3.10
2019-05-30T05:55:06.019Z,3.40
2019-05-30T05:56:05.996Z,3.00
2019-05-30T05:57:05.981Z,3.20
2019-05-30T05:58:05.982Z,3.00
2019-05-30T05:59:05.958Z,3.60
2019-05-30T06:00:05.991Z,3.00
2019-05-30T06:01:05.936Z,2.90
2019-05-30T06:02:05.933Z,4.00
2019-05-30T06:03:06.815Z,2.80
2019-05-30T06:04:12.966Z,2.70
2019-05-30T06:05:05.899Z,2.70
2019-05-30T06:06:05.910Z,4.70
2019-05-30T06:07:05.873Z,2.90
2019-05-30T06:08:05.857Z,2.60
2019-05-30T06:09:05.854Z,3.70
2019-05-30T06:10:05.837Z,2.70
2019-05-30T06:11:05.857Z,4.80
2019-05-30T06:12:05.811Z,3.50
2019-05-30T06:13:05.805Z,4.10
2019-05-30T06:14:05.798Z,2.80
2019-05-30T06:15:05.863Z,3.40
2019-05-30T06:16:05.802Z,3.10
2019-05-30T06:17:05.775Z,2.70
2019-05-30T06:18:05.744Z,2.70
2019-05-30T06:19:05.731Z,3.40
2019-05-30T06:20:05.720Z,2.70
2019-05-30T06:21:05.727Z,2.70
2019-05-30T06:22:05.709Z,3.50
2019-05-30T06:23:05.694Z,3.10
2019-05-30T06:24:05.696Z,2.50
2019-05-30T06:25:05.680Z,3.60
2019-05-30T06:26:05.787Z,4.10
2019-05-30T06:27:05.649Z,3.90
2019-05-30T06:28:05.638Z,2.80
2019-05-30T06:29:05.630Z,2.90
2019-05-30T06:30:05.689Z,2.80
2019-05-30T06:31:05.621Z,3.40
2019-05-30T06:32:05.615Z,2.90
2019-05-30T06:33:05.613Z,2.50
2019-05-30T06:34:05.570Z,2.70
2019-05-30T06:35:05.551Z,3.70
2019-05-30T06:36:05.577Z,4.30
2019-05-30T06:37:05.538Z,3.30
2019-05-30T06:38:05.527Z,2.80
2019-05-30T06:39:05.544Z,2.60
2019-05-30T06:40:05.509Z,2.80
2019-05-30T06:41:05.529Z,3.50
2019-05-30T06:42:05.492Z,2.90
2019-05-30T06:43:05.465Z,3.90
2019-05-30T06:44:05.868Z,5.00
2019-05-30T06:45:05.446Z,3.00
2019-05-30T06:46:05.432Z,3.40
2019-05-30T06:47:05.441Z,3.70
2019-05-30T06:48:05.407Z,3.20
2019-05-30T06:49:05.409Z,2.40
2019-05-30T06:50:05.393Z,4.00
2019-05-30T06:51:05.385Z,3.30
2019-05-30T06:52:05.849Z,4.50
2019-05-30T06:53:05.355Z,3.80
2019-05-30T06:54:05.348Z,2.50
2019-05-30T06:55:05.337Z,4.50
2019-05-30T06:56:05.324Z,2.90
2019-05-30T06:57:05.329Z,4.30
2019-05-30T06:58:05.319Z,3.60
2019-05-30T06:59:05.359Z,4.20
2019-05-30T07:00:05.369Z,2.70
2019-05-30T07:01:05.834Z,2.80
2019-05-30T07:02:05.368Z,2.90
2019-05-30T07:03:06.109Z,3.40
2019-05-30T07:04:05.676Z,3.40
2019-05-30T07:05:05.736Z,2.70
2019-05-30T07:07:14.597Z,2.80
2019-05-30T07:08:15.382Z,3.70
2019-05-30T07:09:15.374Z,2.90
2019-05-30T07:10:15.364Z,3.00
2019-05-30T07:11:15.353Z,3.20
2019-05-30T07:12:15.355Z,2.80
2019-05-30T07:13:15.331Z,3.60
2019-05-30T07:14:15.319Z,2.90
2019-05-30T07:15:15.312Z,3.60
2019-05-30T07:16:15.311Z,3.20
2019-05-30T07:17:15.311Z,3.30
2019-05-30T07:18:15.273Z,3.00
2019-05-30T07:19:15.264Z,3.20
2019-05-30T07:20:15.259Z,4.30
2019-05-30T07:21:15.313Z,3.70
2019-05-30T07:22:15.252Z,4.40
2019-05-30T07:23:15.223Z,2.70
2019-05-30T07:24:15.220Z,2.90
2019-05-30T07:25:15.201Z,3.60
2019-05-30T07:26:15.194Z,3.40
2019-05-30T07:27:15.198Z,2.90
2019-05-30T07:28:15.174Z,3.20
2019-05-30T07:29:15.166Z,3.30
2019-05-30T07:30:15.151Z,5.70
2019-05-30T07:31:15.131Z,2.90
2019-05-30T07:32:15.162Z,2.90
2019-05-30T07:33:15.113Z,4.10
2019-05-30T07:34:15.106Z,3.90
2019-05-30T07:35:15.088Z,4.10
2019-05-30T07:36:15.086Z,3.60
2019-05-30T07:37:15.083Z,3.10
2019-05-30T07:38:15.060Z,3.20
2019-05-30T07:39:15.042Z,3.70
2019-05-30T07:40:19.436Z,2.90
2019-05-30T07:41:15.035Z,2.90
2019-05-30T07:42:15.041Z,3.70
2019-05-30T07:43:15.002Z,3.00
2019-05-30T07:44:14.989Z,3.00
2019-05-30T07:45:14.978Z,4.80
2019-05-30T07:46:14.992Z,2.90
2019-05-30T07:47:14.984Z,4.10
2019-05-30T07:48:14.959Z,3.20
2019-05-30T07:49:14.938Z,2.90
2019-05-30T07:50:14.931Z,3.00
2019-05-30T07:51:14.925Z,3.40
2019-05-30T07:52:15.037Z,2.70
2019-05-30T07:53:14.897Z,2.90
2019-05-30T07:54:14.886Z,3.40
2019-05-30T07:55:14.880Z,3.60
2019-05-30T07:56:14.861Z,3.50
2019-05-30T07:57:14.870Z,2.70
2019-05-30T07:58:14.866Z,4.50
2019-05-30T07:59:14.831Z,4.10
2019-05-30T08:00:14.822Z,3.20
2019-05-30T08:01:14.814Z,3.70
2019-05-30T08:02:14.805Z,2.90
2019-05-30T08:03:14.822Z,3.20
2019-05-30T08:04:14.771Z,3.20
2019-05-30T08:05:24.057Z,3.10
2019-05-30T08:06:14.765Z,4.40
2019-05-30T08:07:14.752Z,2.90
2019-05-30T08:08:14.760Z,2.90
2019-05-30T08:09:14.730Z,3.60
2019-05-30T08:10:14.717Z,3.40
2019-05-30T08:11:14.716Z,3.50
2019-05-30T08:12:14.699Z,3.00
2019-05-30T08:13:14.705Z,3.50
2019-05-30T08:14:14.669Z,3.20
2019-05-30T08:15:14.660Z,4.00
2019-05-30T08:16:14.653Z,3.40
2019-05-30T08:17:14.640Z,3.80
2019-05-30T08:18:14.649Z,2.60
2019-05-30T08:19:14.609Z,3.00
2019-05-30T08:20:14.602Z,3.40
2019-05-30T08:21:14.595Z,4.00
2019-05-30T08:22:14.660Z,4.70
2019-05-30T08:23:14.589Z,4.80
2019-05-30T08:24:14.580Z,2.80
2019-05-30T08:25:14.550Z,3.10
2019-05-30T08:26:17.733Z,4.50
2019-05-30T08:27:14.532Z,3.40
2019-05-30T08:28:14.531Z,3.10
2019-05-30T08:29:14.514Z,4.80
2019-05-30T08:30:14.490Z,3.10
2019-05-30T08:31:14.503Z,4.00
2019-05-30T08:32:14.510Z,3.10
2019-05-30T08:33:14.477Z,4.10
2019-05-30T08:34:14.449Z,3.00
2019-05-30T08:35:14.435Z,3.80
2019-05-30T08:36:14.425Z,4.70
2019-05-30T08:37:14.422Z,4.40
2019-05-30T08:38:14.434Z,3.90
2019-05-30T08:39:14.425Z,3.00
2019-05-30T08:40:14.385Z,2.80
2019-05-30T08:41:14.378Z,3.50
2019-05-30T08:42:14.372Z,3.00
2019-05-30T08:43:14.386Z,2.60
2019-05-30T08:44:14.337Z,3.10
2019-05-30T08:45:14.340Z,2.60
2019-05-30T08:46:14.315Z,4.40
2019-05-30T08:47:14.332Z,2.50
2019-05-30T08:48:14.325Z,2.90
2019-05-30T08:49:14.298Z,4.60
2019-05-30T08:50:14.288Z,4.10
2019-05-30T08:51:14.283Z,3.30
2019-05-30T08:52:14.254Z,4.00
2019-05-30T08:53:14.279Z,2.90
2019-05-30T08:54:14.343Z,3.70
2019-05-30T08:55:14.272Z,2.70
2019-05-30T08:56:14.207Z,2.40
2019-05-30T08:57:14.204Z,2.60
2019-05-30T08:58:14.208Z,2.50
2019-05-30T08:59:14.188Z,3.90
2019-05-30T09:00:14.168Z,2.80
2019-05-30T09:01:14.156Z,2.80
2019-05-30T09:02:14.151Z,3.30
2019-05-30T09:03:14.161Z,2.30
2019-05-30T09:04:14.128Z,3.20
2019-05-30T09:05:14.115Z,2.60
2019-05-30T09:06:14.129Z,5.80
2019-05-30T09:08:03.837Z,1.90
2019-05-30T09:09:04.838Z,1.80
2019-05-30T09:10:04.818Z,4.80
2019-05-30T09:11:04.795Z,2.90
2019-05-30T09:12:04.784Z,3.00
2019-05-30T09:13:04.789Z,4.20
2019-05-30T09:14:04.795Z,3.10
2019-05-30T09:15:04.762Z,2.90
2019-05-30T09:16:04.752Z,2.10
2019-05-30T09:17:04.738Z,2.70
2019-05-30T09:18:04.720Z,3.10
2019-05-30T09:19:04.739Z,3.30
2019-05-30T09:20:04.704Z,4.20
2019-05-30T09:21:04.702Z,3.20
2019-05-30T09:22:04.685Z,2.30
2019-05-30T09:23:04.669Z,3.00
2019-05-30T09:24:04.731Z,2.40
2019-05-30T09:25:04.647Z,3.90
2019-05-30T09:26:04.641Z,3.10
2019-05-30T09:27:04.642Z,4.00
2019-05-30T09:28:04.621Z,2.80
2019-05-30T09:29:04.628Z,3.90
2019-05-30T09:30:04.641Z,4.10
2019-05-30T09:31:04.592Z,3.40
2019-05-30T09:32:04.583Z,2.30
2019-05-30T09:33:04.577Z,3.50
2019-05-30T09:34:04.570Z,3.50
2019-05-30T09:35:04.531Z,3.00
2019-05-30T09:36:13.384Z,2.50
2019-05-30T09:37:04.510Z,3.20
2019-05-30T09:38:04.511Z,2.20
2019-05-30T09:39:04.525Z,2.10
2019-05-30T09:40:04.497Z,4.00
2019-05-30T09:41:04.481Z,3.00
2019-05-30T09:42:04.471Z,2.90
2019-05-30T09:43:04.451Z,2.80
2019-05-30T09:44:04.457Z,2.90
2019-05-30T09:45:04.447Z,2.20
2019-05-30T09:46:04.425Z,2.00
2019-05-30T09:47:04.437Z,3.30
2019-05-30T09:48:04.401Z,2.60
2019-05-30T09:49:04.415Z,2.70
2019-05-30T09:50:04.383Z,2.50
2019-05-30T09:51:04.364Z,3.30
2019-05-30T09:52:04.352Z,3.10
2019-05-30T09:53:04.333Z,3.10
2019-05-30T09:54:04.344Z,2.60
2019-05-30T09:55:04.315Z,2.60
2019-05-30T09:56:04.311Z,3.40
2019-05-30T09:57:04.297Z,2.60
2019-05-30T09:58:04.278Z,3.30
2019-05-30T09:59:04.303Z,2.20
2019-05-30T10:00:04.269Z,2.50
2019-05-30T10:01:04.268Z,2.50
2019-05-30T10:02:04.241Z,1.90
2019-05-30T10:03:04.229Z,2.20
2019-05-30T10:04:04.246Z,3.00
2019-05-30T10:05:04.207Z,4.50
2019-05-30T10:06:04.195Z,2.20
2019-05-30T10:07:04.186Z,3.40
2019-05-30T10:08:04.170Z,4.40
2019-05-30T10:09:04.185Z,1.90
2019-05-30T10:10:04.174Z,2.60
2019-05-30T10:11:04.134Z,3.10
2019-05-30T10:12:04.130Z,2.90
2019-05-30T10:13:04.124Z,2.00
2019-05-30T10:14:04.100Z,2.10
2019-05-30T10:15:04.123Z,2.80
2019-05-30T10:16:04.097Z,2.90
2019-05-30T10:17:04.086Z,4.90
2019-05-30T10:18:04.067Z,3.60
2019-05-30T10:19:04.055Z,2.40
2019-05-30T10:20:04.061Z,3.00
2019-05-30T10:21:04.033Z,2.20
2019-05-30T10:22:04.017Z,2.40
2019-05-30T10:23:04.009Z,2.40
2019-05-30T10:24:04.004Z,2.20
2019-05-30T10:25:04.003Z,2.00
2019-05-30T10:26:04.003Z,2.20
2019-05-30T10:27:03.963Z,2.80
2019-05-30T10:28:03.956Z,2.90
2019-05-30T10:29:03.943Z,3.10
2019-05-30T10:30:04.071Z,2.10
2019-05-30T10:31:03.930Z,2.90
2019-05-30T10:32:03.912Z,2.50
2019-05-30T10:33:04.008Z,2.40
2019-05-30T10:34:03.887Z,2.00
2019-05-30T10:35:03.893Z,2.50
2019-05-30T10:36:03.862Z,2.50
2019-05-30T10:37:03.941Z,3.10
2019-05-30T10:38:03.842Z,2.40
2019-05-30T10:39:03.825Z,2.90
2019-05-30T10:40:03.833Z,2.40
2019-05-30T10:41:03.810Z,2.70
2019-05-30T10:42:03.808Z,2.80
2019-05-30T10:43:03.786Z,2.30
2019-05-30T10:44:03.779Z,2.00
2019-05-30T10:45:03.787Z,2.20
2019-05-30T10:46:03.760Z,3.20
2019-05-30T10:47:03.753Z,2.90
2019-05-30T10:48:03.805Z,3.50
2019-05-30T10:49:03.723Z,2.90
2019-05-30T10:50:04.153Z,3.00
2019-05-30T10:51:03.697Z,3.10
2019-05-30T10:52:03.690Z,2.80
2019-05-30T10:53:03.672Z,3.20
2019-05-30T10:54:03.690Z,4.40
2019-05-30T10:55:03.679Z,4.10
2019-05-30T10:56:03.643Z,2.80
2019-05-30T10:57:03.629Z,4.90
2019-05-30T10:58:03.620Z,2.70
2019-05-30T10:59:03.632Z,3.80
2019-05-30T11:00:03.652Z,2.90
2019-05-30T11:01:03.586Z,3.00
2019-05-30T11:02:03.583Z,2.90
2019-05-30T11:03:03.559Z,2.80
2019-05-30T11:04:03.558Z,2.80
2019-05-30T11:05:03.559Z,2.30
2019-05-30T11:06:03.576Z,2.90
2019-05-30T11:07:11.038Z,2.50
2019-05-30T11:09:13.437Z,2.60
2019-05-30T11:10:14.442Z,2.80
2019-05-30T11:11:14.406Z,3.60
2019-05-30T11:12:14.406Z,3.40
2019-05-30T11:13:14.662Z,3.70
2019-05-30T11:14:14.376Z,2.80
2019-05-30T11:15:14.387Z,3.50
2019-05-30T11:16:14.355Z,3.40
2019-05-30T11:17:14.339Z,3.10
2019-05-30T11:18:14.336Z,3.00
2019-05-30T11:19:14.313Z,2.80
2019-05-30T11:20:14.327Z,3.00
2019-05-30T11:21:14.317Z,2.70
2019-05-30T11:22:14.284Z,5.10
2019-05-30T11:23:14.280Z,3.20
2019-05-30T11:24:14.257Z,3.70
2019-05-30T11:25:14.257Z,2.40
2019-05-30T11:26:14.254Z,3.10
2019-05-30T11:27:14.235Z,4.00
2019-05-30T11:28:14.225Z,3.00
2019-05-30T11:29:14.199Z,4.60
2019-05-30T11:30:14.200Z,2.60
2019-05-30T11:31:14.211Z,4.00
2019-05-30T11:32:14.186Z,4.20
2019-05-30T11:33:14.170Z,3.60
2019-05-30T11:34:14.158Z,3.10
2019-05-30T11:35:14.148Z,2.90
2019-05-30T11:36:14.151Z,3.30
2019-05-30T11:37:18.529Z,3.20
2019-05-30T11:38:14.114Z,3.90
2019-05-30T11:39:14.099Z,3.00
2019-05-30T11:40:14.078Z,4.40
2019-05-30T11:41:14.092Z,4.50
2019-05-30T11:42:14.064Z,3.20
2019-05-30T11:43:14.059Z,2.90
2019-05-30T11:44:14.043Z,3.60
2019-05-30T11:45:14.029Z,2.80
2019-05-30T11:46:14.036Z,3.40
2019-05-30T11:47:14.007Z,3.50
2019-05-30T11:48:13.995Z,3.60
2019-05-30T11:49:13.980Z,3.40
2019-05-30T11:50:13.971Z,3.60
2019-05-30T11:51:13.988Z,3.20
2019-05-30T11:52:13.955Z,2.80
2019-05-30T11:53:13.944Z,4.90
2019-05-30T11:54:13.928Z,4.00
2019-05-30T11:55:13.917Z,4.50
2019-05-30T11:56:13.930Z,3.10
2019-05-30T11:57:13.907Z,3.50
2019-05-30T11:58:13.889Z,3.80
2019-05-30T11:59:13.876Z,4.00
2019-05-30T12:00:13.865Z,4.40
2019-05-30T12:01:13.863Z,3.60
2019-05-30T12:02:13.844Z,4.50
2019-05-30T12:03:13.832Z,4.20
2019-05-30T12:04:13.816Z,4.00
2019-05-30T12:05:13.809Z,3.40
2019-05-30T12:06:13.808Z,3.50
2019-05-30T12:07:13.785Z,3.40
2019-05-30T12:08:13.779Z,5.00
2019-05-30T12:09:14.683Z,4.50
2019-05-30T12:10:13.764Z,3.40
2019-05-30T12:11:13.895Z,3.60
2019-05-30T12:12:13.734Z,4.50
2019-05-30T12:13:13.715Z,5.00
2019-05-30T12:14:13.714Z,4.20
2019-05-30T12:15:13.712Z,3.60
2019-05-30T12:16:13.711Z,3.50
2019-05-30T12:17:13.680Z,4.70
2019-05-30T12:18:13.663Z,4.80
2019-05-30T12:19:13.661Z,3.70
2019-05-30T12:20:13.642Z,6.90
2019-05-30T12:21:13.653Z,5.80
2019-05-30T12:22:13.618Z,3.80
2019-05-30T12:23:13.614Z,4.00
2019-05-30T12:24:13.607Z,4.20
2019-05-30T12:25:13.584Z,4.20
2019-05-30T12:26:13.606Z,4.60
2019-05-30T12:27:13.568Z,3.70
2019-05-30T12:28:13.558Z,5.70
2019-05-30T12:29:13.543Z,4.40
2019-05-30T12:30:13.537Z,4.60
2019-05-30T12:31:13.542Z,3.90
2019-05-30T12:32:13.507Z,4.60
2019-05-30T12:33:13.495Z,3.90
2019-05-30T12:34:14.466Z,5.50
2019-05-30T12:35:13.477Z,4.80
2019-05-30T12:36:13.478Z,3.50
2019-05-30T12:37:13.460Z,5.30
2019-05-30T12:38:13.452Z,4.40
2019-05-30T12:39:13.431Z,3.50
2019-05-30T12:40:13.419Z,6.00
2019-05-30T12:41:13.424Z,4.40
2019-05-30T12:42:13.413Z,4.40
2019-05-30T12:43:13.394Z,3.70
2019-05-30T12:44:13.386Z,4.70
2019-05-30T12:45:13.364Z,4.30
2019-05-30T12:46:13.362Z,4.80
2019-05-30T12:47:13.369Z,3.60
2019-05-30T12:48:13.334Z,4.00
2019-05-30T12:49:13.316Z,4.10
2019-05-30T12:50:16.547Z,4.00
2019-05-30T12:51:13.290Z,4.70
2019-05-30T12:52:13.306Z,4.50
2019-05-30T12:53:13.281Z,4.80
2019-05-30T12:54:13.266Z,5.10
2019-05-30T12:55:13.255Z,3.70
2019-05-30T12:56:13.246Z,4.70
2019-05-30T12:57:13.282Z,5.20
2019-05-30T12:58:13.229Z,4.80
2019-05-30T12:59:13.206Z,5.40
2019-05-30T13:00:17.918Z,5.20
2019-05-30T13:01:13.193Z,4.20
2019-05-30T13:02:13.201Z,5.80
2019-05-30T13:03:13.173Z,4.60
2019-05-30T13:04:13.157Z,4.80
2019-05-30T13:05:13.149Z,4.40
2019-05-30T13:06:13.133Z,4.70
2019-05-30T13:07:13.161Z,4.70
2019-05-30T13:08:21.293Z,4.20
2019-05-30T23:02:37.599Z,7.80
2019-05-30T23:03:38.564Z,9.60
2019-05-30T23:04:38.554Z,10.60
2019-05-30T23:05:38.553Z,10.70
2019-05-30T23:06:38.532Z,10.70
2019-05-30T23:07:38.518Z,10.90
2019-05-30T23:08:38.509Z,10.70
2019-05-30T23:09:38.494Z,10.30
2019-05-30T23:10:38.490Z,10.50
2019-05-30T23:11:38.488Z,10.30
2019-05-30T23:12:38.474Z,10.00
2019-05-30T23:13:40.772Z,10.40
2019-05-30T23:14:38.453Z,10.70
2019-05-30T23:15:38.486Z,10.00
2019-05-30T23:16:38.438Z,10.10
2019-05-30T23:17:38.412Z,10.20
2019-05-30T23:18:38.432Z,9.80
2019-05-30T23:19:38.376Z,9.80